RAIN

Not for real navigation. The accuracy of this data is not assured See disclaimer for more information



ICAO NAME COUNTRY WIND Kt GUST Kt VIS m TEMP/DEW C BARO METAR
KMLP MULLAN PASS VOR ID United States 7 0 400 2/1 30.04 KMLP 172153Z AUTO 24007KT 210V280 0.25SM -RA FG VV001 02/01 A3004 RMK AO2 SLP141 P0002 T00220011
LIMK Torino / Bric Della Croce Italy 0 0 600 3/3 29.65 LIMK 172155Z 00000KT 0600 -RA FG VV/// 03/03 Q1004 RMK VAL INVIS VIS MIN 0600
KSMP STAMPEDE PASS WA United States 8 19 800 9/8 30.10 KSMP 172208Z AUTO 27008G19KT 190V330 0.5SM FG VV003 09/08 A3010 RMK AO2 RAE02 P0000 T00940083
EFSI Seinajoki-Ilmajok Finland 2 0 800 5/5 30.03 EFSI 172150Z AUTO 20002KT 0800 -SHRA FG FEW001 SCT005 OVC012 05/05 Q1017
EDLP Paderborn / Lippstadt Germany 2 0 900 4/3 29.65 EDLP 172150Z VRB02KT 0900 R24/P2000N RA FG VV003 04/03 Q1004

Show more